sensor_id;sensor_type;location;lat;lon;timestamp;P1;durP1;ratioP1;P2;durP2;ratioP2
54511;SDS011;40419;47.438;19.026;2023-06-22T00:00:14;1.30;;;1.20;;
54511;SDS011;40419;47.438;19.026;2023-06-22T00:02:47;1.50;;;0.40;;
54511;SDS011;40419;47.438;19.026;2023-06-22T00:05:15;2.25;;;0.57;;
54511;SDS011;40419;47.438;19.026;2023-06-22T00:07:40;2.25;;;1.02;;
54511;SDS011;40419;47.438;19.026;2023-06-22T00:10:06;0.25;;;0.25;;
54511;SDS011;40419;47.438;19.026;2023-06-22T00:12:34;1.23;;;0.65;;
54511;SDS011;40419;47.438;19.026;2023-06-22T00:15:00;1.90;;;1.17;;
54511;SDS011;40419;47.438;19.026;2023-06-22T00:17:30;1.73;;;1.17;;
54511;SDS011;40419;47.438;19.026;2023-06-22T00:19:58;1.88;;;0.98;;
54511;SDS011;40419;47.438;19.026;2023-06-22T00:22:25;0.55;;;0.50;;
54511;SDS011;40419;47.438;19.026;2023-06-22T00:24:55;2.22;;;0.77;;
54511;SDS011;40419;47.438;19.026;2023-06-22T00:27:21;1.10;;;0.75;;
54511;SDS011;40419;47.438;19.026;2023-06-22T00:29:52;1.23;;;0.83;;
54511;SDS011;40419;47.438;19.026;2023-06-22T00:32:21;1.45;;;0.88;;
54511;SDS011;40419;47.438;19.026;2023-06-22T00:34:47;3.53;;;1.15;;
54511;SDS011;40419;47.438;19.026;2023-06-22T00:37:12;2.42;;;1.20;;
54511;SDS011;40419;47.438;19.026;2023-06-22T00:39:41;0.40;;;0.40;;
54511;SDS011;40419;47.438;19.026;2023-06-22T00:42:08;1.08;;;0.75;;
54511;SDS011;40419;47.438;19.026;2023-06-22T00:44:34;2.30;;;1.25;;
54511;SDS011;40419;47.438;19.026;2023-06-22T00:47:03;1.45;;;1.10;;
54511;SDS011;40419;47.438;19.026;2023-06-22T00:49:32;0.30;;;0.30;;
54511;SDS011;40419;47.438;19.026;2023-06-22T00:51:58;2.10;;;1.63;;
54511;SDS011;40419;47.438;19.026;2023-06-22T00:54:28;2.42;;;2.08;;
54511;SDS011;40419;47.438;19.026;2023-06-22T00:56:53;4.50;;;0.98;;
54511;SDS011;40419;47.438;19.026;2023-06-22T00:59:23;0.47;;;0.40;;
54511;SDS011;40419;47.438;19.026;2023-06-22T01:01:55;2.63;;;0.80;;
54511;SDS011;40419;47.438;19.026;2023-06-22T01:04:23;2.00;;;1.55;;
54511;SDS011;40419;47.438;19.026;2023-06-22T01:10:16;0.95;;;0.82;;
54511;SDS011;40419;47.438;19.026;2023-06-22T01:12:38;0.70;;;0.60;;
54511;SDS011;40419;47.438;19.026;2023-06-22T01:15:13;1.10;;;0.98;;
54511;SDS011;40419;47.438;19.026;2023-06-22T01:17:44;6.22;;;1.30;;
54511;SDS011;40419;47.438;19.026;2023-06-22T01:20:13;1.95;;;1.73;;
54511;SDS011;40419;47.438;19.026;2023-06-22T01:25:45;7.07;;;1.95;;
54511;SDS011;40419;47.438;19.026;2023-06-22T01:31:16;2.58;;;1.08;;
54511;SDS011;40419;47.438;19.026;2023-06-22T01:33:44;5.88;;;1.55;;
54511;SDS011;40419;47.438;19.026;2023-06-22T01:36:18;1.00;;;0.90;;
54511;SDS011;40419;47.438;19.026;2023-06-22T01:38:48;2.95;;;1.42;;
54511;SDS011;40419;47.438;19.026;2023-06-22T01:41:18;1.67;;;1.02;;
54511;SDS011;40419;47.438;19.026;2023-06-22T01:43:50;1.42;;;1.30;;
54511;SDS011;40419;47.438;19.026;2023-06-22T01:46:22;2.03;;;0.82;;
54511;SDS011;40419;47.438;19.026;2023-06-22T01:48:50;1.63;;;1.17;;
54511;SDS011;40419;47.438;19.026;2023-06-22T01:51:19;1.85;;;1.20;;
54511;SDS011;40419;47.438;19.026;2023-06-22T01:53:47;2.33;;;1.65;;
54511;SDS011;40419;47.438;19.026;2023-06-22T01:56:17;1.10;;;0.90;;
54511;SDS011;40419;47.438;19.026;2023-06-22T02:01:54;2.45;;;1.92;;
54511;SDS011;40419;47.438;19.026;2023-06-22T02:04:27;2.53;;;1.77;;
54511;SDS011;40419;47.438;19.026;2023-06-22T02:07:01;2.35;;;1.48;;
54511;SDS011;40419;47.438;19.026;2023-06-22T02:09:31;3.63;;;1.45;;
54511;SDS011;40419;47.438;19.026;2023-06-22T02:12:06;1.52;;;0.80;;
54511;SDS011;40419;47.438;19.026;2023-06-22T02:14:35;1.30;;;1.20;;
54511;SDS011;40419;47.438;19.026;2023-06-22T02:17:04;1.40;;;0.85;;
54511;SDS011;40419;47.438;19.026;2023-06-22T02:19:37;14.63;;;2.15;;
54511;SDS011;40419;47.438;19.026;2023-06-22T02:22:08;1.88;;;1.67;;
54511;SDS011;40419;47.438;19.026;2023-06-22T02:24:34;1.75;;;1.35;;
54511;SDS011;40419;47.438;19.026;2023-06-22T02:27:02;5.85;;;1.75;;
54511;SDS011;40419;47.438;19.026;2023-06-22T02:29:31;1.40;;;1.30;;
54511;SDS011;40419;47.438;19.026;2023-06-22T02:32:01;3.15;;;0.85;;
54511;SDS011;40419;47.438;19.026;2023-06-22T02:34:29;5.53;;;2.03;;
54511;SDS011;40419;47.438;19.026;2023-06-22T02:36:54;1.00;;;0.95;;
54511;SDS011;40419;47.438;19.026;2023-06-22T02:39:20;1.67;;;1.13;;
54511;SDS011;40419;47.438;19.026;2023-06-22T02:41:49;2.65;;;1.00;;
54511;SDS011;40419;47.438;19.026;2023-06-22T02:44:15;0.50;;;0.50;;
54511;SDS011;40419;47.438;19.026;2023-06-22T02:46:49;1.77;;;1.20;;
54511;SDS011;40419;47.438;19.026;2023-06-22T02:49:16;1.63;;;1.30;;
54511;SDS011;40419;47.438;19.026;2023-06-22T02:51:46;1.90;;;1.70;;
54511;SDS011;40419;47.438;19.026;2023-06-22T02:54:15;0.52;;;0.52;;
54511;SDS011;40419;47.438;19.026;2023-06-22T02:56:48;0.85;;;0.57;;
54511;SDS011;40419;47.438;19.026;2023-06-22T02:59:15;3.08;;;1.73;;
54511;SDS011;40419;47.438;19.026;2023-06-22T03:01:42;1.58;;;1.08;;
54511;SDS011;40419;47.438;19.026;2023-06-22T03:04:21;2.10;;;1.40;;
54511;SDS011;40419;47.438;19.026;2023-06-22T03:06:46;3.67;;;1.80;;
54511;SDS011;40419;47.438;19.026;2023-06-22T03:09:16;0.75;;;0.57;;
54511;SDS011;40419;47.438;19.026;2023-06-22T03:14:14;1.45;;;1.15;;
54511;SDS011;40419;47.438;19.026;2023-06-22T03:16:42;3.08;;;1.13;;
54511;SDS011;40419;47.438;19.026;2023-06-22T03:19:10;3.40;;;1.50;;
54511;SDS011;40419;47.438;19.026;2023-06-22T03:21:36;1.73;;;1.27;;
54511;SDS011;40419;47.438;19.026;2023-06-22T03:24:05;3.03;;;1.33;;
54511;SDS011;40419;47.438;19.026;2023-06-22T03:26:34;1.90;;;1.38;;
54511;SDS011;40419;47.438;19.026;2023-06-22T03:29:02;1.10;;;0.98;;
54511;SDS011;40419;47.438;19.026;2023-06-22T03:31:33;1.57;;;1.10;;
54511;SDS011;40419;47.438;19.026;2023-06-22T03:33:59;1.17;;;0.98;;
54511;SDS011;40419;47.438;19.026;2023-06-22T03:36:27;1.65;;;0.70;;
54511;SDS011;40419;47.438;19.026;2023-06-22T03:38:57;1.90;;;1.63;;
54511;SDS011;40419;47.438;19.026;2023-06-22T03:41:28;1.15;;;1.05;;
54511;SDS011;40419;47.438;19.026;2023-06-22T03:43:53;2.50;;;1.10;;
54511;SDS011;40419;47.438;19.026;2023-06-22T03:46:19;1.38;;;0.85;;
54511;SDS011;40419;47.438;19.026;2023-06-22T03:48:45;2.17;;;1.40;;
54511;SDS011;40419;47.438;19.026;2023-06-22T03:51:13;1.02;;;0.90;;
54511;SDS011;40419;47.438;19.026;2023-06-22T03:53:41;2.20;;;1.38;;
54511;SDS011;40419;47.438;19.026;2023-06-22T03:56:09;1.05;;;0.85;;
54511;SDS011;40419;47.438;19.026;2023-06-22T03:58:34;2.75;;;1.48;;
54511;SDS011;40419;47.438;19.026;2023-06-22T04:01:02;1.95;;;0.98;;
54511;SDS011;40419;47.438;19.026;2023-06-22T04:03:28;3.60;;;1.17;;
54511;SDS011;40419;47.438;19.026;2023-06-22T04:05:53;0.85;;;0.75;;
54511;SDS011;40419;47.438;19.026;2023-06-22T04:08:19;3.75;;;1.75;;
54511;SDS011;40419;47.438;19.026;2023-06-22T04:10:50;3.70;;;1.10;;
54511;SDS011;40419;47.438;19.026;2023-06-22T04:13:17;2.70;;;2.10;;
54511;SDS011;40419;47.438;19.026;2023-06-22T04:15:43;2.40;;;1.95;;
54511;SDS011;40419;47.438;19.026;2023-06-22T04:18:12;1.42;;;1.25;;
54511;SDS011;40419;47.438;19.026;2023-06-22T04:20:40;2.65;;;1.40;;
54511;SDS011;40419;47.438;19.026;2023-06-22T04:23:12;2.50;;;0.85;;
54511;SDS011;40419;47.438;19.026;2023-06-22T04:25:41;2.50;;;1.98;;
54511;SDS011;40419;47.438;19.026;2023-06-22T04:28:06;1.75;;;0.77;;
54511;SDS011;40419;47.438;19.026;2023-06-22T04:30:37;1.02;;;0.90;;
54511;SDS011;40419;47.438;19.026;2023-06-22T04:33:14;2.45;;;0.98;;
54511;SDS011;40419;47.438;19.026;2023-06-22T04:35:44;1.70;;;1.25;;
54511;SDS011;40419;47.438;19.026;2023-06-22T04:38:11;1.52;;;0.90;;
54511;SDS011;40419;47.438;19.026;2023-06-22T04:40:38;1.38;;;1.27;;
54511;SDS011;40419;47.438;19.026;2023-06-22T04:43:06;0.93;;;0.70;;
54511;SDS011;40419;47.438;19.026;2023-06-22T04:45:35;2.05;;;1.38;;
54511;SDS011;40419;47.438;19.026;2023-06-22T04:48:03;3.03;;;2.08;;
54511;SDS011;40419;47.438;19.026;2023-06-22T04:50:32;2.55;;;1.33;;
54511;SDS011;40419;47.438;19.026;2023-06-22T04:52:57;4.05;;;1.13;;
54511;SDS011;40419;47.438;19.026;2023-06-22T04:55:25;1.08;;;0.63;;
54511;SDS011;40419;47.438;19.026;2023-06-22T04:57:53;2.58;;;1.55;;
54511;SDS011;40419;47.438;19.026;2023-06-22T05:00:25;1.17;;;1.00;;
54511;SDS011;40419;47.438;19.026;2023-06-22T05:02:51;2.55;;;0.95;;
54511;SDS011;40419;47.438;19.026;2023-06-22T05:05:19;2.75;;;1.75;;
54511;SDS011;40419;47.438;19.026;2023-06-22T05:07:47;2.17;;;1.50;;
54511;SDS011;40419;47.438;19.026;2023-06-22T05:10:18;1.67;;;1.00;;
54511;SDS011;40419;47.438;19.026;2023-06-22T05:12:44;1.08;;;0.80;;
54511;SDS011;40419;47.438;19.026;2023-06-22T05:15:16;1.25;;;0.75;;
54511;SDS011;40419;47.438;19.026;2023-06-22T05:17:46;1.02;;;1.00;;
54511;SDS011;40419;47.438;19.026;2023-06-22T05:20:12;1.70;;;1.05;;
54511;SDS011;40419;47.438;19.026;2023-06-22T05:22:43;3.38;;;1.17;;
54511;SDS011;40419;47.438;19.026;2023-06-22T05:25:11;2.97;;;1.17;;
54511;SDS011;40419;47.438;19.026;2023-06-22T05:27:37;2.08;;;1.42;;
54511;SDS011;40419;47.438;19.026;2023-06-22T05:30:08;1.52;;;1.08;;
54511;SDS011;40419;47.438;19.026;2023-06-22T05:32:36;2.03;;;1.10;;
54511;SDS011;40419;47.438;19.026;2023-06-22T05:35:06;1.23;;;1.13;;
54511;SDS011;40419;47.438;19.026;2023-06-22T05:37:32;0.93;;;0.60;;
54511;SDS011;40419;47.438;19.026;2023-06-22T05:40:01;3.28;;;0.90;;
54511;SDS011;40419;47.438;19.026;2023-06-22T05:42:29;1.13;;;0.95;;
54511;SDS011;40419;47.438;19.026;2023-06-22T05:45:00;12.60;;;1.45;;
54511;SDS011;40419;47.438;19.026;2023-06-22T05:47:26;2.78;;;1.83;;
54511;SDS011;40419;47.438;19.026;2023-06-22T05:49:51;1.17;;;0.70;;
54511;SDS011;40419;47.438;19.026;2023-06-22T05:52:17;3.10;;;1.42;;
54511;SDS011;40419;47.438;19.026;2023-06-22T05:54:47;3.63;;;1.52;;
54511;SDS011;40419;47.438;19.026;2023-06-22T05:57:15;4.13;;;1.73;;
54511;SDS011;40419;47.438;19.026;2023-06-22T05:59:46;1.08;;;0.80;;
54511;SDS011;40419;47.438;19.026;2023-06-22T06:02:12;5.45;;;1.55;;
54511;SDS011;40419;47.438;19.026;2023-06-22T06:04:40;7.35;;;1.45;;
54511;SDS011;40419;47.438;19.026;2023-06-22T06:07:08;2.67;;;1.27;;
54511;SDS011;40419;47.438;19.026;2023-06-22T06:09:33;4.80;;;1.30;;
54511;SDS011;40419;47.438;19.026;2023-06-22T06:12:01;3.05;;;1.85;;
54511;SDS011;40419;47.438;19.026;2023-06-22T06:14:28;2.88;;;1.50;;
54511;SDS011;40419;47.438;19.026;2023-06-22T06:16:56;1.58;;;1.17;;
54511;SDS011;40419;47.438;19.026;2023-06-22T06:19:24;3.95;;;1.23;;
54511;SDS011;40419;47.438;19.026;2023-06-22T06:21:51;7.50;;;1.77;;
54511;SDS011;40419;47.438;19.026;2023-06-22T06:24:17;2.20;;;1.33;;
54511;SDS011;40419;47.438;19.026;2023-06-22T06:26:42;2.65;;;1.25;;
54511;SDS011;40419;47.438;19.026;2023-06-22T06:29:10;2.60;;;1.42;;
54511;SDS011;40419;47.438;19.026;2023-06-22T06:31:38;2.53;;;1.30;;
54511;SDS011;40419;47.438;19.026;2023-06-22T06:34:05;2.55;;;1.40;;
54511;SDS011;40419;47.438;19.026;2023-06-22T06:36:31;2.47;;;1.85;;
54511;SDS011;40419;47.438;19.026;2023-06-22T06:38:59;3.78;;;1.45;;
54511;SDS011;40419;47.438;19.026;2023-06-22T06:41:27;1.33;;;1.23;;
54511;SDS011;40419;47.438;19.026;2023-06-22T06:43:54;2.15;;;1.17;;
54511;SDS011;40419;47.438;19.026;2023-06-22T06:46:22;2.13;;;1.30;;
54511;SDS011;40419;47.438;19.026;2023-06-22T06:48:50;5.85;;;1.13;;
54511;SDS011;40419;47.438;19.026;2023-06-22T06:51:18;1.02;;;0.90;;
54511;SDS011;40419;47.438;19.026;2023-06-22T06:53:48;1.40;;;1.08;;
54511;SDS011;40419;47.438;19.026;2023-06-22T06:56:14;1.60;;;1.00;;
54511;SDS011;40419;47.438;19.026;2023-06-22T06:58:42;1.95;;;1.15;;
54511;SDS011;40419;47.438;19.026;2023-06-22T07:01:15;1.63;;;0.88;;
54511;SDS011;40419;47.438;19.026;2023-06-22T07:03:40;0.93;;;0.60;;
54511;SDS011;40419;47.438;19.026;2023-06-22T07:06:08;2.17;;;1.65;;
54511;SDS011;40419;47.438;19.026;2023-06-22T07:08:34;1.48;;;0.85;;
54511;SDS011;40419;47.438;19.026;2023-06-22T07:11:01;1.10;;;0.60;;
54511;SDS011;40419;47.438;19.026;2023-06-22T07:13:31;4.32;;;1.45;;
54511;SDS011;40419;47.438;19.026;2023-06-22T07:16:01;1.92;;;1.20;;
54511;SDS011;40419;47.438;19.026;2023-06-22T07:18:34;5.27;;;1.40;;
54511;SDS011;40419;47.438;19.026;2023-06-22T07:21:02;2.67;;;1.10;;
54511;SDS011;40419;47.438;19.026;2023-06-22T07:23:34;1.33;;;0.85;;
54511;SDS011;40419;47.438;19.026;2023-06-22T07:25:59;2.22;;;1.67;;
54511;SDS011;40419;47.438;19.026;2023-06-22T07:28:31;1.35;;;0.60;;
54511;SDS011;40419;47.438;19.026;2023-06-22T07:31:02;0.80;;;0.60;;
54511;SDS011;40419;47.438;19.026;2023-06-22T07:33:30;2.40;;;1.88;;
54511;SDS011;40419;47.438;19.026;2023-06-22T07:35:58;1.65;;;0.95;;
54511;SDS011;40419;47.438;19.026;2023-06-22T07:38:24;2.83;;;1.65;;
54511;SDS011;40419;47.438;19.026;2023-06-22T07:40:54;1.15;;;0.85;;
54511;SDS011;40419;47.438;19.026;2023-06-22T07:43:22;2.38;;;2.15;;
54511;SDS011;40419;47.438;19.026;2023-06-22T07:45:52;2.28;;;1.27;;
54511;SDS011;40419;47.438;19.026;2023-06-22T07:48:20;1.98;;;0.93;;
54511;SDS011;40419;47.438;19.026;2023-06-22T07:50:48;1.52;;;1.42;;
54511;SDS011;40419;47.438;19.026;2023-06-22T07:53:17;3.47;;;1.58;;
54511;SDS011;40419;47.438;19.026;2023-06-22T07:55:42;2.50;;;1.58;;
54511;SDS011;40419;47.438;19.026;2023-06-22T07:58:10;2.75;;;1.60;;
54511;SDS011;40419;47.438;19.026;2023-06-22T08:00:35;2.75;;;1.40;;
54511;SDS011;40419;47.438;19.026;2023-06-22T08:03:04;1.52;;;1.23;;
54511;SDS011;40419;47.438;19.026;2023-06-22T08:05:30;1.70;;;1.25;;
54511;SDS011;40419;47.438;19.026;2023-06-22T08:07:56;8.77;;;2.25;;
54511;SDS011;40419;47.438;19.026;2023-06-22T08:10:22;3.45;;;1.90;;
54511;SDS011;40419;47.438;19.026;2023-06-22T08:12:51;2.45;;;1.42;;
54511;SDS011;40419;47.438;19.026;2023-06-22T08:15:19;2.03;;;1.50;;
54511;SDS011;40419;47.438;19.026;2023-06-22T08:17:44;1.83;;;1.33;;
54511;SDS011;40419;47.438;19.026;2023-06-22T08:20:19;2.75;;;1.70;;
54511;SDS011;40419;47.438;19.026;2023-06-22T08:22:45;3.72;;;1.83;;
54511;SDS011;40419;47.438;19.026;2023-06-22T08:25:13;9.38;;;2.97;;
54511;SDS011;40419;47.438;19.026;2023-06-22T08:27:39;1.52;;;1.35;;
54511;SDS011;40419;47.438;19.026;2023-06-22T08:30:06;6.05;;;1.92;;
54511;SDS011;40419;47.438;19.026;2023-06-22T08:32:32;2.38;;;1.77;;
54511;SDS011;40419;47.438;19.026;2023-06-22T08:34:58;3.78;;;1.80;;
54511;SDS011;40419;47.438;19.026;2023-06-22T08:37:23;2.28;;;1.55;;
54511;SDS011;40419;47.438;19.026;2023-06-22T08:39:55;3.97;;;1.67;;
54511;SDS011;40419;47.438;19.026;2023-06-22T08:42:32;3.45;;;1.83;;
54511;SDS011;40419;47.438;19.026;2023-06-22T08:45:00;4.30;;;3.13;;
54511;SDS011;40419;47.438;19.026;2023-06-22T08:47:29;4.22;;;1.95;;
54511;SDS011;40419;47.438;19.026;2023-06-22T08:49:57;2.70;;;1.70;;
54511;SDS011;40419;47.438;19.026;2023-06-22T08:52:27;7.00;;;1.75;;
54511;SDS011;40419;47.438;19.026;2023-06-22T08:54:52;3.72;;;2.08;;
54511;SDS011;40419;47.438;19.026;2023-06-22T08:57:20;4.88;;;2.33;;
54511;SDS011;40419;47.438;19.026;2023-06-22T08:59:48;4.30;;;2.13;;
54511;SDS011;40419;47.438;19.026;2023-06-22T09:02:17;3.72;;;2.13;;
54511;SDS011;40419;47.438;19.026;2023-06-22T09:04:43;2.85;;;1.60;;
54511;SDS011;40419;47.438;19.026;2023-06-22T09:07:08;4.45;;;2.30;;
54511;SDS011;40419;47.438;19.026;2023-06-22T09:09:34;3.85;;;2.58;;
54511;SDS011;40419;47.438;19.026;2023-06-22T09:12:02;1.88;;;1.60;;
54511;SDS011;40419;47.438;19.026;2023-06-22T09:14:28;5.32;;;2.33;;
54511;SDS011;40419;47.438;19.026;2023-06-22T09:16:53;4.78;;;2.22;;
54511;SDS011;40419;47.438;19.026;2023-06-22T09:19:21;6.22;;;2.78;;
54511;SDS011;40419;47.438;19.026;2023-06-22T09:21:51;3.63;;;2.20;;
54511;SDS011;40419;47.438;19.026;2023-06-22T09:24:19;11.85;;;2.40;;
54511;SDS011;40419;47.438;19.026;2023-06-22T09:26:47;3.65;;;2.15;;
54511;SDS011;40419;47.438;19.026;2023-06-22T09:29:13;2.95;;;2.10;;
54511;SDS011;40419;47.438;19.026;2023-06-22T09:31:38;3.80;;;2.22;;
54511;SDS011;40419;47.438;19.026;2023-06-22T09:34:04;6.22;;;2.00;;
54511;SDS011;40419;47.438;19.026;2023-06-22T09:36:29;3.33;;;1.73;;
54511;SDS011;40419;47.438;19.026;2023-06-22T09:38:55;5.15;;;2.67;;
54511;SDS011;40419;47.438;19.026;2023-06-22T09:41:24;8.98;;;2.42;;
54511;SDS011;40419;47.438;19.026;2023-06-22T09:43:50;4.70;;;2.42;;
54511;SDS011;40419;47.438;19.026;2023-06-22T09:46:18;3.97;;;1.95;;
54511;SDS011;40419;47.438;19.026;2023-06-22T09:48:47;4.03;;;2.70;;
54511;SDS011;40419;47.438;19.026;2023-06-22T09:51:13;3.78;;;2.33;;
54511;SDS011;40419;47.438;19.026;2023-06-22T09:53:41;3.67;;;2.03;;
54511;SDS011;40419;47.438;19.026;2023-06-22T09:56:06;6.47;;;2.33;;
54511;SDS011;40419;47.438;19.026;2023-06-22T09:58:32;2.78;;;2.10;;
54511;SDS011;40419;47.438;19.026;2023-06-22T10:01:02;3.83;;;1.83;;
54511;SDS011;40419;47.438;19.026;2023-06-22T10:03:32;3.17;;;1.92;;
54511;SDS011;40419;47.438;19.026;2023-06-22T10:06:02;2.67;;;1.88;;
54511;SDS011;40419;47.438;19.026;2023-06-22T10:08:28;3.25;;;2.20;;
54511;SDS011;40419;47.438;19.026;2023-06-22T10:10:53;4.03;;;2.17;;
54511;SDS011;40419;47.438;19.026;2023-06-22T10:13:21;3.88;;;2.78;;
54511;SDS011;40419;47.438;19.026;2023-06-22T10:15:47;5.05;;;3.22;;
54511;SDS011;40419;47.438;19.026;2023-06-22T10:18:16;2.83;;;2.00;;
54511;SDS011;40419;47.438;19.026;2023-06-22T10:20:42;3.20;;;2.30;;
54511;SDS011;40419;47.438;19.026;2023-06-22T10:23:08;2.17;;;1.75;;
54511;SDS011;40419;47.438;19.026;2023-06-22T10:25:34;5.25;;;3.05;;
54511;SDS011;40419;47.438;19.026;2023-06-22T10:27:59;5.32;;;1.98;;
54511;SDS011;40419;47.438;19.026;2023-06-22T10:30:25;2.58;;;1.90;;
54511;SDS011;40419;47.438;19.026;2023-06-22T10:32:56;3.33;;;2.25;;
54511;SDS011;40419;47.438;19.026;2023-06-22T10:35:24;4.20;;;2.72;;
54511;SDS011;40419;47.438;19.026;2023-06-22T10:37:50;3.92;;;2.83;;
54511;SDS011;40419;47.438;19.026;2023-06-22T10:40:18;4.15;;;2.83;;
54511;SDS011;40419;47.438;19.026;2023-06-22T10:42:47;3.20;;;2.25;;
54511;SDS011;40419;47.438;19.026;2023-06-22T10:45:17;2.55;;;1.77;;
54511;SDS011;40419;47.438;19.026;2023-06-22T10:47:47;3.80;;;2.30;;
54511;SDS011;40419;47.438;19.026;2023-06-22T10:50:17;3.75;;;3.28;;
54511;SDS011;40419;47.438;19.026;2023-06-22T10:52:48;5.10;;;2.38;;
54511;SDS011;40419;47.438;19.026;2023-06-22T10:55:21;9.45;;;2.65;;
54511;SDS011;40419;47.438;19.026;2023-06-22T10:57:49;2.95;;;1.75;;
54511;SDS011;40419;47.438;19.026;2023-06-22T11:00:19;5.72;;;2.92;;
54511;SDS011;40419;47.438;19.026;2023-06-22T11:02:48;4.25;;;2.70;;
54511;SDS011;40419;47.438;19.026;2023-06-22T11:05:16;3.65;;;2.63;;
54511;SDS011;40419;47.438;19.026;2023-06-22T11:07:44;3.50;;;2.20;;
54511;SDS011;40419;47.438;19.026;2023-06-22T11:10:15;3.90;;;2.17;;
54511;SDS011;40419;47.438;19.026;2023-06-22T11:12:43;5.63;;;3.20;;
54511;SDS011;40419;47.438;19.026;2023-06-22T11:15:12;3.85;;;2.40;;
54511;SDS011;40419;47.438;19.026;2023-06-22T11:17:40;6.72;;;2.25;;
54511;SDS011;40419;47.438;19.026;2023-06-22T11:20:06;3.28;;;2.28;;
54511;SDS011;40419;47.438;19.026;2023-06-22T11:22:38;3.55;;;2.80;;
54511;SDS011;40419;47.438;19.026;2023-06-22T11:25:06;2.92;;;1.98;;
54511;SDS011;40419;47.438;19.026;2023-06-22T11:27:35;4.88;;;2.42;;
54511;SDS011;40419;47.438;19.026;2023-06-22T11:30:03;4.85;;;2.33;;
54511;SDS011;40419;47.438;19.026;2023-06-22T11:32:31;3.28;;;2.30;;
54511;SDS011;40419;47.438;19.026;2023-06-22T11:34:59;4.90;;;1.83;;
54511;SDS011;40419;47.438;19.026;2023-06-22T11:37:26;2.72;;;1.70;;
54511;SDS011;40419;47.438;19.026;2023-06-22T11:39:57;4.63;;;2.42;;
54511;SDS011;40419;47.438;19.026;2023-06-22T11:42:28;4.60;;;2.33;;
54511;SDS011;40419;47.438;19.026;2023-06-22T11:44:55;6.65;;;3.47;;
54511;SDS011;40419;47.438;19.026;2023-06-22T11:47:21;3.60;;;2.10;;
54511;SDS011;40419;47.438;19.026;2023-06-22T11:49:46;4.57;;;2.05;;
54511;SDS011;40419;47.438;19.026;2023-06-22T11:52:14;4.25;;;3.08;;
54511;SDS011;40419;47.438;19.026;2023-06-22T11:54:42;3.47;;;2.53;;
54511;SDS011;40419;47.438;19.026;2023-06-22T11:57:11;6.53;;;2.85;;
54511;SDS011;40419;47.438;19.026;2023-06-22T11:59:36;3.28;;;1.73;;
54511;SDS011;40419;47.438;19.026;2023-06-22T12:02:04;4.45;;;2.20;;
54511;SDS011;40419;47.438;19.026;2023-06-22T12:04:32;5.82;;;2.35;;
54511;SDS011;40419;47.438;19.026;2023-06-22T12:07:00;3.40;;;2.20;;
54511;SDS011;40419;47.438;19.026;2023-06-22T12:09:26;7.00;;;2.45;;
54511;SDS011;40419;47.438;19.026;2023-06-22T12:11:54;5.80;;;2.28;;
54511;SDS011;40419;47.438;19.026;2023-06-22T12:14:22;5.10;;;2.33;;
54511;SDS011;40419;47.438;19.026;2023-06-22T12:16:52;3.92;;;2.22;;
54511;SDS011;40419;47.438;19.026;2023-06-22T12:19:20;6.07;;;2.83;;
54511;SDS011;40419;47.438;19.026;2023-06-22T12:21:46;3.30;;;2.03;;
54511;SDS011;40419;47.438;19.026;2023-06-22T12:24:11;3.78;;;2.58;;
54511;SDS011;40419;47.438;19.026;2023-06-22T12:26:41;6.07;;;2.70;;
54511;SDS011;40419;47.438;19.026;2023-06-22T12:29:08;4.35;;;2.53;;
54511;SDS011;40419;47.438;19.026;2023-06-22T12:31:33;3.65;;;2.60;;
54511;SDS011;40419;47.438;19.026;2023-06-22T12:33:59;4.40;;;2.28;;
54511;SDS011;40419;47.438;19.026;2023-06-22T12:36:24;4.82;;;2.88;;
54511;SDS011;40419;47.438;19.026;2023-06-22T12:38:52;6.47;;;2.05;;
54511;SDS011;40419;47.438;19.026;2023-06-22T12:41:17;3.40;;;1.80;;
54511;SDS011;40419;47.438;19.026;2023-06-22T12:43:43;3.85;;;2.25;;
54511;SDS011;40419;47.438;19.026;2023-06-22T12:46:11;9.07;;;4.05;;
54511;SDS011;40419;47.438;19.026;2023-06-22T12:48:36;6.90;;;1.95;;
54511;SDS011;40419;47.438;19.026;2023-06-22T12:51:07;4.03;;;1.85;;
54511;SDS011;40419;47.438;19.026;2023-06-22T12:53:33;4.43;;;2.58;;
54511;SDS011;40419;47.438;19.026;2023-06-22T12:56:04;4.90;;;2.78;;
54511;SDS011;40419;47.438;19.026;2023-06-22T12:58:32;8.63;;;3.10;;
54511;SDS011;40419;47.438;19.026;2023-06-22T13:00:58;2.78;;;1.70;;
54511;SDS011;40419;47.438;19.026;2023-06-22T13:03:26;3.65;;;2.20;;
54511;SDS011;40419;47.438;19.026;2023-06-22T13:05:56;3.67;;;1.75;;
54511;SDS011;40419;47.438;19.026;2023-06-22T13:08:21;4.03;;;2.65;;
54511;SDS011;40419;47.438;19.026;2023-06-22T13:10:47;5.07;;;2.63;;
54511;SDS011;40419;47.438;19.026;2023-06-22T13:13:15;3.50;;;2.45;;
54511;SDS011;40419;47.438;19.026;2023-06-22T13:15:40;4.65;;;2.75;;
54511;SDS011;40419;47.438;19.026;2023-06-22T13:18:10;2.67;;;2.05;;
54511;SDS011;40419;47.438;19.026;2023-06-22T13:20:37;5.40;;;3.03;;
54511;SDS011;40419;47.438;19.026;2023-06-22T13:23:02;2.30;;;1.90;;
54511;SDS011;40419;47.438;19.026;2023-06-22T13:25:30;4.68;;;2.40;;
54511;SDS011;40419;47.438;19.026;2023-06-22T13:28:01;4.75;;;2.45;;
54511;SDS011;40419;47.438;19.026;2023-06-22T13:30:31;3.47;;;2.28;;
54511;SDS011;40419;47.438;19.026;2023-06-22T13:32:59;4.25;;;2.67;;
54511;SDS011;40419;47.438;19.026;2023-06-22T13:35:29;3.20;;;2.10;;
54511;SDS011;40419;47.438;19.026;2023-06-22T13:37:55;5.63;;;2.80;;
54511;SDS011;40419;47.438;19.026;2023-06-22T13:40:25;3.08;;;2.05;;
54511;SDS011;40419;47.438;19.026;2023-06-22T13:42:50;5.80;;;2.60;;
54511;SDS011;40419;47.438;19.026;2023-06-22T13:45:16;4.43;;;2.30;;
54511;SDS011;40419;47.438;19.026;2023-06-22T13:47:47;5.38;;;1.83;;
54511;SDS011;40419;47.438;19.026;2023-06-22T13:50:13;2.90;;;2.25;;
54511;SDS011;40419;47.438;19.026;2023-06-22T13:52:39;3.53;;;2.47;;
54511;SDS011;40419;47.438;19.026;2023-06-22T13:55:04;3.15;;;2.58;;
54511;SDS011;40419;47.438;19.026;2023-06-22T13:57:32;4.25;;;2.83;;
54511;SDS011;40419;47.438;19.026;2023-06-22T13:59:59;5.97;;;3.03;;
54511;SDS011;40419;47.438;19.026;2023-06-22T14:02:36;2.88;;;1.80;;
54511;SDS011;40419;47.438;19.026;2023-06-22T14:05:10;3.80;;;1.88;;
54511;SDS011;40419;47.438;19.026;2023-06-22T14:07:38;5.30;;;2.33;;
54511;SDS011;40419;47.438;19.026;2023-06-22T14:10:06;3.63;;;2.90;;
54511;SDS011;40419;47.438;19.026;2023-06-22T14:12:34;3.60;;;2.53;;
54511;SDS011;40419;47.438;19.026;2023-06-22T14:14:59;3.08;;;2.10;;
54511;SDS011;40419;47.438;19.026;2023-06-22T14:17:27;2.50;;;1.73;;
54511;SDS011;40419;47.438;19.026;2023-06-22T14:19:53;3.63;;;2.10;;
54511;SDS011;40419;47.438;19.026;2023-06-22T14:22:22;4.43;;;2.25;;
54511;SDS011;40419;47.438;19.026;2023-06-22T14:24:50;3.22;;;1.80;;
54511;SDS011;40419;47.438;19.026;2023-06-22T14:27:18;4.18;;;2.60;;
54511;SDS011;40419;47.438;19.026;2023-06-22T14:29:46;4.50;;;2.28;;
54511;SDS011;40419;47.438;19.026;2023-06-22T14:32:12;6.43;;;4.57;;
54511;SDS011;40419;47.438;19.026;2023-06-22T14:34:37;10.07;;;1.80;;
54511;SDS011;40419;47.438;19.026;2023-06-22T14:37:07;3.08;;;2.05;;
54511;SDS011;40419;47.438;19.026;2023-06-22T14:39:37;3.35;;;2.30;;
54511;SDS011;40419;47.438;19.026;2023-06-22T14:42:02;3.22;;;2.65;;
54511;SDS011;40419;47.438;19.026;2023-06-22T14:44:29;5.60;;;2.60;;
54511;SDS011;40419;47.438;19.026;2023-06-22T14:46:55;3.95;;;1.95;;
54511;SDS011;40419;47.438;19.026;2023-06-22T14:49:23;2.92;;;1.73;;
54511;SDS011;40419;47.438;19.026;2023-06-22T14:51:52;5.55;;;2.65;;